sensor_id;sensor_type;location;lat;lon;timestamp;P1;durP1;ratioP1;P2;durP2;ratioP2
45296;SDS011;31040;51.622;10.420;2022-12-10T00:00:44;17.38;;;9.82;;
45296;SDS011;31040;51.622;10.420;2022-12-10T00:03:12;19.33;;;11.82;;
45296;SDS011;31040;51.622;10.420;2022-12-10T00:05:39;19.52;;;10.93;;
45296;SDS011;31040;51.622;10.420;2022-12-10T00:08:06;17.45;;;10.10;;
45296;SDS011;31040;51.622;10.420;2022-12-10T00:10:33;20.15;;;10.77;;
45296;SDS011;31040;51.622;10.420;2022-12-10T00:13:01;22.40;;;11.95;;
45296;SDS011;31040;51.622;10.420;2022-12-10T00:15:28;18.05;;;11.65;;
45296;SDS011;31040;51.622;10.420;2022-12-10T00:17:55;23.65;;;11.73;;
45296;SDS011;31040;51.622;10.420;2022-12-10T00:20:22;19.33;;;10.82;;
45296;SDS011;31040;51.622;10.420;2022-12-10T00:22:49;18.38;;;11.07;;
45296;SDS011;31040;51.622;10.420;2022-12-10T00:25:17;19.45;;;11.52;;
45296;SDS011;31040;51.622;10.420;2022-12-10T00:27:44;23.08;;;13.15;;
45296;SDS011;31040;51.622;10.420;2022-12-10T00:30:11;19.88;;;11.65;;
45296;SDS011;31040;51.622;10.420;2022-12-10T00:32:39;21.13;;;10.88;;
45296;SDS011;31040;51.622;10.420;2022-12-10T00:35:06;23.27;;;11.68;;
45296;SDS011;31040;51.622;10.420;2022-12-10T00:37:33;20.92;;;11.95;;
45296;SDS011;31040;51.622;10.420;2022-12-10T00:40:00;19.58;;;10.70;;
45296;SDS011;31040;51.622;10.420;2022-12-10T00:42:28;22.38;;;11.65;;
45296;SDS011;31040;51.622;10.420;2022-12-10T00:44:55;21.48;;;11.80;;
45296;SDS011;31040;51.622;10.420;2022-12-10T00:47:22;23.58;;;11.02;;
45296;SDS011;31040;51.622;10.420;2022-12-10T00:49:49;21.65;;;11.65;;
45296;SDS011;31040;51.622;10.420;2022-12-10T00:52:17;19.73;;;11.10;;
45296;SDS011;31040;51.622;10.420;2022-12-10T00:54:44;17.45;;;11.05;;
45296;SDS011;31040;51.622;10.420;2022-12-10T00:57:11;17.48;;;10.52;;
45296;SDS011;31040;51.622;10.420;2022-12-10T00:59:38;20.27;;;11.35;;
45296;SDS011;31040;51.622;10.420;2022-12-10T01:02:06;18.23;;;10.73;;
45296;SDS011;31040;51.622;10.420;2022-12-10T01:04:33;20.52;;;11.48;;
45296;SDS011;31040;51.622;10.420;2022-12-10T01:07:00;19.98;;;11.05;;
45296;SDS011;31040;51.622;10.420;2022-12-10T01:09:34;21.52;;;10.98;;
45296;SDS011;31040;51.622;10.420;2022-12-10T01:12:02;19.52;;;11.05;;
45296;SDS011;31040;51.622;10.420;2022-12-10T01:14:31;18.20;;;10.75;;
45296;SDS011;31040;51.622;10.420;2022-12-10T01:17:02;17.48;;;10.18;;
45296;SDS011;31040;51.622;10.420;2022-12-10T01:19:30;19.30;;;11.85;;
45296;SDS011;31040;51.622;10.420;2022-12-10T01:21:57;20.63;;;10.43;;
45296;SDS011;31040;51.622;10.420;2022-12-10T01:24:26;22.67;;;10.18;;
45296;SDS011;31040;51.622;10.420;2022-12-10T01:26:53;18.35;;;9.60;;
45296;SDS011;31040;51.622;10.420;2022-12-10T01:29:24;19.88;;;10.75;;
45296;SDS011;31040;51.622;10.420;2022-12-10T01:31:53;19.08;;;9.98;;
45296;SDS011;31040;51.622;10.420;2022-12-10T01:34:21;17.13;;;9.55;;
45296;SDS011;31040;51.622;10.420;2022-12-10T01:36:50;18.92;;;9.77;;
45296;SDS011;31040;51.622;10.420;2022-12-10T01:39:18;17.40;;;10.10;;
45296;SDS011;31040;51.622;10.420;2022-12-10T01:46:44;19.05;;;9.40;;
45296;SDS011;31040;51.622;10.420;2022-12-10T01:49:16;17.80;;;10.07;;
45296;SDS011;31040;51.622;10.420;2022-12-10T01:51:45;16.27;;;10.52;;
45296;SDS011;31040;51.622;10.420;2022-12-10T01:54:15;20.77;;;10.35;;
45296;SDS011;31040;51.622;10.420;2022-12-10T01:56:43;18.42;;;10.70;;
45296;SDS011;31040;51.622;10.420;2022-12-10T01:59:12;19.33;;;10.63;;
45296;SDS011;31040;51.622;10.420;2022-12-10T02:04:29;21.35;;;11.50;;
45296;SDS011;31040;51.622;10.420;2022-12-10T02:14:41;20.10;;;11.60;;
45296;SDS011;31040;51.622;10.420;2022-12-10T02:17:18;23.05;;;12.20;;
45296;SDS011;31040;51.622;10.420;2022-12-10T02:22:23;22.55;;;12.13;;
45296;SDS011;31040;51.622;10.420;2022-12-10T02:24:51;24.38;;;12.63;;
45296;SDS011;31040;51.622;10.420;2022-12-10T02:27:25;25.08;;;13.52;;
45296;SDS011;31040;51.622;10.420;2022-12-10T02:29:54;22.48;;;12.07;;
45296;SDS011;31040;51.622;10.420;2022-12-10T02:32:23;18.60;;;11.70;;
45296;SDS011;31040;51.622;10.420;2022-12-10T02:34:53;19.60;;;11.60;;
45296;SDS011;31040;51.622;10.420;2022-12-10T02:37:26;19.27;;;10.50;;
45296;SDS011;31040;51.622;10.420;2022-12-10T02:39:55;18.20;;;10.27;;
45296;SDS011;31040;51.622;10.420;2022-12-10T02:42:23;18.15;;;10.70;;
45296;SDS011;31040;51.622;10.420;2022-12-10T02:44:52;22.02;;;11.63;;
45296;SDS011;31040;51.622;10.420;2022-12-10T02:47:20;19.33;;;10.27;;
45296;SDS011;31040;51.622;10.420;2022-12-10T02:49:49;22.73;;;11.23;;
45296;SDS011;31040;51.622;10.420;2022-12-10T02:52:18;18.27;;;11.05;;
45296;SDS011;31040;51.622;10.420;2022-12-10T02:54:47;21.45;;;11.38;;
45296;SDS011;31040;51.622;10.420;2022-12-10T02:59:47;19.48;;;11.85;;
45296;SDS011;31040;51.622;10.420;2022-12-10T03:07:37;17.75;;;9.95;;
45296;SDS011;31040;51.622;10.420;2022-12-10T03:12:43;19.38;;;10.63;;
45296;SDS011;31040;51.622;10.420;2022-12-10T03:15:14;16.45;;;9.02;;
45296;SDS011;31040;51.622;10.420;2022-12-10T03:17:42;18.10;;;9.98;;
45296;SDS011;31040;51.622;10.420;2022-12-10T03:20:13;16.20;;;8.55;;
45296;SDS011;31040;51.622;10.420;2022-12-10T03:22:41;18.15;;;9.73;;
45296;SDS011;31040;51.622;10.420;2022-12-10T03:25:10;19.80;;;11.10;;
45296;SDS011;31040;51.622;10.420;2022-12-10T03:27:39;14.93;;;9.02;;
45296;SDS011;31040;51.622;10.420;2022-12-10T03:30:07;16.10;;;8.43;;
45296;SDS011;31040;51.622;10.420;2022-12-10T03:32:35;16.65;;;8.35;;
45296;SDS011;31040;51.622;10.420;2022-12-10T03:35:02;15.30;;;8.55;;
45296;SDS011;31040;51.622;10.420;2022-12-10T03:37:30;17.40;;;9.93;;
45296;SDS011;31040;51.622;10.420;2022-12-10T03:39:58;18.60;;;9.38;;
45296;SDS011;31040;51.622;10.420;2022-12-10T03:42:25;19.60;;;8.63;;
45296;SDS011;31040;51.622;10.420;2022-12-10T03:44:53;16.38;;;9.50;;
45296;SDS011;31040;51.622;10.420;2022-12-10T03:47:20;15.70;;;7.47;;
45296;SDS011;31040;51.622;10.420;2022-12-10T03:49:47;13.65;;;7.63;;
45296;SDS011;31040;51.622;10.420;2022-12-10T03:52:14;13.52;;;7.13;;
45296;SDS011;31040;51.622;10.420;2022-12-10T03:54:42;13.65;;;7.82;;
45296;SDS011;31040;51.622;10.420;2022-12-10T03:57:09;12.13;;;7.47;;
45296;SDS011;31040;51.622;10.420;2022-12-10T03:59:37;15.35;;;8.90;;
45296;SDS011;31040;51.622;10.420;2022-12-10T04:02:04;13.95;;;8.00;;
45296;SDS011;31040;51.622;10.420;2022-12-10T04:04:31;11.85;;;6.72;;
45296;SDS011;31040;51.622;10.420;2022-12-10T04:06:58;14.07;;;8.52;;
45296;SDS011;31040;51.622;10.420;2022-12-10T04:09:26;13.20;;;6.75;;
45296;SDS011;31040;51.622;10.420;2022-12-10T04:12:00;13.02;;;6.93;;
45296;SDS011;31040;51.622;10.420;2022-12-10T04:14:28;12.57;;;6.47;;
45296;SDS011;31040;51.622;10.420;2022-12-10T04:17:14;12.48;;;7.15;;
45296;SDS011;31040;51.622;10.420;2022-12-10T04:19:41;14.82;;;7.38;;
45296;SDS011;31040;51.622;10.420;2022-12-10T04:22:09;14.10;;;6.90;;
45296;SDS011;31040;51.622;10.420;2022-12-10T04:24:55;12.63;;;7.03;;
45296;SDS011;31040;51.622;10.420;2022-12-10T04:27:41;12.75;;;6.25;;
45296;SDS011;31040;51.622;10.420;2022-12-10T04:30:10;13.75;;;7.53;;
45296;SDS011;31040;51.622;10.420;2022-12-10T04:32:38;11.88;;;6.50;;
45296;SDS011;31040;51.622;10.420;2022-12-10T04:35:05;12.52;;;6.95;;
45296;SDS011;31040;51.622;10.420;2022-12-10T04:37:33;12.07;;;7.18;;
45296;SDS011;31040;51.622;10.420;2022-12-10T04:40:00;12.27;;;6.97;;
45296;SDS011;31040;51.622;10.420;2022-12-10T04:42:28;14.10;;;7.50;;
45296;SDS011;31040;51.622;10.420;2022-12-10T04:44:55;11.70;;;7.53;;
45296;SDS011;31040;51.622;10.420;2022-12-10T04:47:23;12.65;;;7.18;;
45296;SDS011;31040;51.622;10.420;2022-12-10T04:49:50;15.80;;;7.93;;
45296;SDS011;31040;51.622;10.420;2022-12-10T04:52:18;15.15;;;8.60;;
45296;SDS011;31040;51.622;10.420;2022-12-10T04:54:45;12.68;;;6.75;;
45296;SDS011;31040;51.622;10.420;2022-12-10T04:57:12;12.45;;;6.85;;
45296;SDS011;31040;51.622;10.420;2022-12-10T04:59:40;13.27;;;7.40;;
45296;SDS011;31040;51.622;10.420;2022-12-10T05:02:07;14.90;;;8.85;;
45296;SDS011;31040;51.622;10.420;2022-12-10T05:04:35;13.13;;;6.95;;
45296;SDS011;31040;51.622;10.420;2022-12-10T05:07:02;12.85;;;7.75;;
45296;SDS011;31040;51.622;10.420;2022-12-10T05:09:30;16.92;;;9.40;;
45296;SDS011;31040;51.622;10.420;2022-12-10T05:11:57;14.45;;;7.68;;
45296;SDS011;31040;51.622;10.420;2022-12-10T05:14:24;12.70;;;8.32;;
45296;SDS011;31040;51.622;10.420;2022-12-10T05:16:51;16.35;;;8.73;;
45296;SDS011;31040;51.622;10.420;2022-12-10T05:19:19;12.98;;;7.68;;
45296;SDS011;31040;51.622;10.420;2022-12-10T05:21:48;15.45;;;9.07;;
45296;SDS011;31040;51.622;10.420;2022-12-10T05:24:34;11.93;;;7.88;;
45296;SDS011;31040;51.622;10.420;2022-12-10T05:27:02;14.73;;;7.10;;
45296;SDS011;31040;51.622;10.420;2022-12-10T05:29:29;11.98;;;7.68;;
45296;SDS011;31040;51.622;10.420;2022-12-10T05:31:56;14.95;;;8.55;;
45296;SDS011;31040;51.622;10.420;2022-12-10T05:34:23;13.73;;;8.38;;
45296;SDS011;31040;51.622;10.420;2022-12-10T05:36:51;13.30;;;7.47;;
45296;SDS011;31040;51.622;10.420;2022-12-10T05:39:18;14.80;;;8.45;;
45296;SDS011;31040;51.622;10.420;2022-12-10T05:41:45;18.95;;;9.00;;
45296;SDS011;31040;51.622;10.420;2022-12-10T05:44:13;16.63;;;8.23;;
45296;SDS011;31040;51.622;10.420;2022-12-10T05:46:40;18.42;;;10.15;;
45296;SDS011;31040;51.622;10.420;2022-12-10T05:49:08;17.38;;;10.77;;
45296;SDS011;31040;51.622;10.420;2022-12-10T05:51:35;20.05;;;10.32;;
45296;SDS011;31040;51.622;10.420;2022-12-10T05:54:04;20.98;;;10.70;;
45296;SDS011;31040;51.622;10.420;2022-12-10T05:56:32;18.58;;;10.05;;
45296;SDS011;31040;51.622;10.420;2022-12-10T05:59:00;18.23;;;9.75;;
45296;SDS011;31040;51.622;10.420;2022-12-10T06:01:29;14.23;;;8.43;;
45296;SDS011;31040;51.622;10.420;2022-12-10T06:03:58;18.58;;;10.35;;
45296;SDS011;31040;51.622;10.420;2022-12-10T06:06:27;18.98;;;9.85;;
45296;SDS011;31040;51.622;10.420;2022-12-10T06:08:54;22.08;;;11.13;;
45296;SDS011;31040;51.622;10.420;2022-12-10T06:11:26;19.00;;;11.35;;
45296;SDS011;31040;51.622;10.420;2022-12-10T06:13:54;17.88;;;9.77;;
45296;SDS011;31040;51.622;10.420;2022-12-10T06:16:23;16.65;;;9.43;;
45296;SDS011;31040;51.622;10.420;2022-12-10T06:18:51;16.85;;;9.40;;
45296;SDS011;31040;51.622;10.420;2022-12-10T06:21:19;19.90;;;10.18;;
45296;SDS011;31040;51.622;10.420;2022-12-10T06:23:47;19.10;;;10.27;;
45296;SDS011;31040;51.622;10.420;2022-12-10T06:26:16;17.20;;;9.80;;
45296;SDS011;31040;51.622;10.420;2022-12-10T06:28:44;16.00;;;8.90;;
45296;SDS011;31040;51.622;10.420;2022-12-10T06:31:11;15.93;;;9.77;;
45296;SDS011;31040;51.622;10.420;2022-12-10T06:33:39;18.83;;;10.63;;
45296;SDS011;31040;51.622;10.420;2022-12-10T06:36:07;17.85;;;10.20;;
45296;SDS011;31040;51.622;10.420;2022-12-10T06:38:36;18.70;;;10.60;;
45296;SDS011;31040;51.622;10.420;2022-12-10T06:41:04;22.13;;;11.07;;
45296;SDS011;31040;51.622;10.420;2022-12-10T06:43:31;19.60;;;10.55;;
45296;SDS011;31040;51.622;10.420;2022-12-10T06:45:59;18.77;;;9.80;;
45296;SDS011;31040;51.622;10.420;2022-12-10T06:48:31;19.52;;;10.95;;
45296;SDS011;31040;51.622;10.420;2022-12-10T06:50:58;21.08;;;10.63;;
45296;SDS011;31040;51.622;10.420;2022-12-10T06:53:25;21.77;;;11.65;;
45296;SDS011;31040;51.622;10.420;2022-12-10T06:55:52;21.23;;;13.02;;
45296;SDS011;31040;51.622;10.420;2022-12-10T06:58:19;21.35;;;12.45;;
45296;SDS011;31040;51.622;10.420;2022-12-10T07:00:47;19.77;;;10.75;;
45296;SDS011;31040;51.622;10.420;2022-12-10T07:03:14;16.42;;;10.10;;
45296;SDS011;31040;51.622;10.420;2022-12-10T07:05:42;21.05;;;11.98;;
45296;SDS011;31040;51.622;10.420;2022-12-10T07:08:09;24.63;;;12.80;;
45296;SDS011;31040;51.622;10.420;2022-12-10T07:10:37;22.08;;;12.60;;
45296;SDS011;31040;51.622;10.420;2022-12-10T07:13:04;24.10;;;13.55;;
45296;SDS011;31040;51.622;10.420;2022-12-10T07:15:31;25.52;;;14.50;;
45296;SDS011;31040;51.622;10.420;2022-12-10T07:17:58;23.60;;;13.45;;
45296;SDS011;31040;51.622;10.420;2022-12-10T07:20:26;20.92;;;11.90;;
45296;SDS011;31040;51.622;10.420;2022-12-10T07:22:53;23.58;;;13.13;;
45296;SDS011;31040;51.622;10.420;2022-12-10T07:25:20;21.52;;;12.05;;
45296;SDS011;31040;51.622;10.420;2022-12-10T07:27:47;21.60;;;12.18;;
45296;SDS011;31040;51.622;10.420;2022-12-10T07:30:21;28.35;;;14.55;;
45296;SDS011;31040;51.622;10.420;2022-12-10T07:32:48;24.08;;;13.52;;
45296;SDS011;31040;51.622;10.420;2022-12-10T07:35:15;20.67;;;11.30;;
45296;SDS011;31040;51.622;10.420;2022-12-10T07:37:42;18.77;;;10.10;;
45296;SDS011;31040;51.622;10.420;2022-12-10T07:40:10;17.70;;;9.65;;
45296;SDS011;31040;51.622;10.420;2022-12-10T07:42:37;21.35;;;10.95;;
45296;SDS011;31040;51.622;10.420;2022-12-10T07:45:05;20.30;;;10.73;;
45296;SDS011;31040;51.622;10.420;2022-12-10T07:47:34;19.08;;;10.63;;
45296;SDS011;31040;51.622;10.420;2022-12-10T07:50:02;29.35;;;11.73;;
45296;SDS011;31040;51.622;10.420;2022-12-10T07:52:29;15.05;;;9.23;;
45296;SDS011;31040;51.622;10.420;2022-12-10T07:54:57;15.63;;;9.57;;
45296;SDS011;31040;51.622;10.420;2022-12-10T07:57:24;13.20;;;8.43;;
45296;SDS011;31040;51.622;10.420;2022-12-10T07:59:51;27.88;;;12.80;;
45296;SDS011;31040;51.622;10.420;2022-12-10T08:02:19;16.67;;;10.05;;
45296;SDS011;31040;51.622;10.420;2022-12-10T08:04:46;22.63;;;12.75;;
45296;SDS011;31040;51.622;10.420;2022-12-10T08:07:13;26.27;;;14.43;;
45296;SDS011;31040;51.622;10.420;2022-12-10T08:09:40;29.02;;;13.40;;
45296;SDS011;31040;51.622;10.420;2022-12-10T08:12:08;24.75;;;13.40;;
45296;SDS011;31040;51.622;10.420;2022-12-10T08:14:35;19.10;;;9.75;;
45296;SDS011;31040;51.622;10.420;2022-12-10T08:17:02;15.63;;;9.10;;
45296;SDS011;31040;51.622;10.420;2022-12-10T08:19:30;15.02;;;8.82;;
45296;SDS011;31040;51.622;10.420;2022-12-10T08:21:57;18.05;;;9.63;;
45296;SDS011;31040;51.622;10.420;2022-12-10T08:24:24;15.52;;;9.80;;
45296;SDS011;31040;51.622;10.420;2022-12-10T08:26:52;19.42;;;10.40;;
45296;SDS011;31040;51.622;10.420;2022-12-10T08:29:19;18.05;;;10.10;;
45296;SDS011;31040;51.622;10.420;2022-12-10T08:31:47;18.52;;;9.60;;
45296;SDS011;31040;51.622;10.420;2022-12-10T08:34:15;19.17;;;9.82;;
45296;SDS011;31040;51.622;10.420;2022-12-10T08:36:42;16.75;;;9.85;;
45296;SDS011;31040;51.622;10.420;2022-12-10T08:39:10;17.50;;;10.50;;
45296;SDS011;31040;51.622;10.420;2022-12-10T08:41:43;15.75;;;7.57;;
45296;SDS011;31040;51.622;10.420;2022-12-10T08:44:11;16.25;;;9.48;;
45296;SDS011;31040;51.622;10.420;2022-12-10T08:46:39;13.85;;;8.57;;
45296;SDS011;31040;51.622;10.420;2022-12-10T08:49:06;15.75;;;9.25;;
45296;SDS011;31040;51.622;10.420;2022-12-10T08:51:34;16.00;;;9.73;;
45296;SDS011;31040;51.622;10.420;2022-12-10T08:54:01;15.13;;;8.98;;
45296;SDS011;31040;51.622;10.420;2022-12-10T08:56:29;15.98;;;9.00;;
45296;SDS011;31040;51.622;10.420;2022-12-10T08:58:56;17.85;;;10.45;;
45296;SDS011;31040;51.622;10.420;2022-12-10T09:01:23;13.73;;;7.85;;
45296;SDS011;31040;51.622;10.420;2022-12-10T09:03:51;12.75;;;6.70;;
45296;SDS011;31040;51.622;10.420;2022-12-10T09:06:19;14.88;;;8.98;;
45296;SDS011;31040;51.622;10.420;2022-12-10T09:08:47;17.67;;;10.90;;
45296;SDS011;31040;51.622;10.420;2022-12-10T09:11:25;17.27;;;10.98;;
45296;SDS011;31040;51.622;10.420;2022-12-10T09:13:52;16.92;;;9.38;;
45296;SDS011;31040;51.622;10.420;2022-12-10T09:16:20;21.95;;;12.20;;
45296;SDS011;31040;51.622;10.420;2022-12-10T09:18:48;23.10;;;14.00;;
45296;SDS011;31040;51.622;10.420;2022-12-10T09:21:16;15.00;;;8.98;;
45296;SDS011;31040;51.622;10.420;2022-12-10T09:23:43;13.55;;;8.82;;
45296;SDS011;31040;51.622;10.420;2022-12-10T09:26:13;13.75;;;9.85;;
45296;SDS011;31040;51.622;10.420;2022-12-10T09:28:41;15.25;;;8.63;;
45296;SDS011;31040;51.622;10.420;2022-12-10T09:31:09;17.67;;;10.20;;
45296;SDS011;31040;51.622;10.420;2022-12-10T09:33:45;15.05;;;8.75;;
45296;SDS011;31040;51.622;10.420;2022-12-10T09:36:13;12.82;;;7.05;;
45296;SDS011;31040;51.622;10.420;2022-12-10T09:38:41;13.25;;;7.85;;
45296;SDS011;31040;51.622;10.420;2022-12-10T09:51:40;18.05;;;10.35;;
45296;SDS011;31040;51.622;10.420;2022-12-10T09:54:12;15.18;;;9.43;;
45296;SDS011;31040;51.622;10.420;2022-12-10T09:56:43;22.70;;;14.88;;
45296;SDS011;31040;51.622;10.420;2022-12-10T09:59:15;15.80;;;9.07;;
45296;SDS011;31040;51.622;10.420;2022-12-10T10:01:42;16.88;;;8.93;;
45296;SDS011;31040;51.622;10.420;2022-12-10T10:04:10;14.80;;;9.23;;
45296;SDS011;31040;51.622;10.420;2022-12-10T10:06:37;15.65;;;8.55;;
45296;SDS011;31040;51.622;10.420;2022-12-10T10:09:05;14.02;;;8.27;;
45296;SDS011;31040;51.622;10.420;2022-12-10T10:11:34;17.30;;;11.35;;
45296;SDS011;31040;51.622;10.420;2022-12-10T10:14:06;17.35;;;11.00;;
45296;SDS011;31040;51.622;10.420;2022-12-10T10:16:39;19.23;;;10.68;;
45296;SDS011;31040;51.622;10.420;2022-12-10T10:21:45;22.73;;;13.10;;
45296;SDS011;31040;51.622;10.420;2022-12-10T10:24:14;26.30;;;11.48;;
45296;SDS011;31040;51.622;10.420;2022-12-10T10:26:43;23.17;;;10.77;;
45296;SDS011;31040;51.622;10.420;2022-12-10T10:29:13;14.75;;;8.15;;
45296;SDS011;31040;51.622;10.420;2022-12-10T10:31:42;15.45;;;8.93;;
45296;SDS011;31040;51.622;10.420;2022-12-10T10:34:27;19.08;;;9.20;;
45296;SDS011;31040;51.622;10.420;2022-12-10T10:36:57;26.45;;;11.02;;
45296;SDS011;31040;51.622;10.420;2022-12-10T10:41:53;14.40;;;7.63;;
45296;SDS011;31040;51.622;10.420;2022-12-10T10:44:24;28.55;;;12.13;;
45296;SDS011;31040;51.622;10.420;2022-12-10T10:46:53;17.83;;;11.63;;
45296;SDS011;31040;51.622;10.420;2022-12-10T10:51:48;19.42;;;11.93;;
45296;SDS011;31040;51.622;10.420;2022-12-10T10:54:30;19.38;;;10.57;;
45296;SDS011;31040;51.622;10.420;2022-12-10T10:56:57;20.88;;;10.88;;
45296;SDS011;31040;51.622;10.420;2022-12-10T10:59:35;17.25;;;10.07;;
45296;SDS011;31040;51.622;10.420;2022-12-10T11:02:16;21.90;;;10.43;;
45296;SDS011;31040;51.622;10.420;2022-12-10T11:04:46;15.05;;;8.70;;
45296;SDS011;31040;51.622;10.420;2022-12-10T11:09:52;17.67;;;10.88;;
45296;SDS011;31040;51.622;10.420;2022-12-10T11:14:50;21.73;;;13.60;;
45296;SDS011;31040;51.622;10.420;2022-12-10T11:19:53;20.30;;;10.85;;
45296;SDS011;31040;51.622;10.420;2022-12-10T11:24:54;22.80;;;12.30;;
45296;SDS011;31040;51.622;10.420;2022-12-10T11:29:55;20.17;;;12.80;;
45296;SDS011;31040;51.622;10.420;2022-12-10T11:37:31;20.63;;;11.73;;
45296;SDS011;31040;51.622;10.420;2022-12-10T11:55:51;14.38;;;7.75;;
45296;SDS011;31040;51.622;10.420;2022-12-10T12:03:59;16.35;;;8.27;;
45296;SDS011;31040;51.622;10.420;2022-12-10T12:14:25;29.52;;;14.75;;
45296;SDS011;31040;51.622;10.420;2022-12-10T12:19:39;25.40;;;12.20;;
45296;SDS011;31040;51.622;10.420;2022-12-10T12:22:11;12.13;;;5.65;;
45296;SDS011;31040;51.622;10.420;2022-12-10T12:24:41;13.95;;;6.97;;
45296;SDS011;31040;51.622;10.420;2022-12-10T12:27:21;10.48;;;6.28;;
45296;SDS011;31040;51.622;10.420;2022-12-10T12:29:55;19.77;;;10.15;;
45296;SDS011;31040;51.622;10.420;2022-12-10T12:32:25;13.20;;;6.97;;
45296;SDS011;31040;51.622;10.420;2022-12-10T12:35:01;10.73;;;5.65;;
45296;SDS011;31040;51.622;10.420;2022-12-10T12:37:35;11.07;;;5.78;;
45296;SDS011;31040;51.622;10.420;2022-12-10T12:40:09;9.55;;;5.43;;
45296;SDS011;31040;51.622;10.420;2022-12-10T12:42:40;13.32;;;7.55;;
45296;SDS011;31040;51.622;10.420;2022-12-10T12:45:13;11.52;;;7.53;;
45296;SDS011;31040;51.622;10.420;2022-12-10T12:47:50;12.50;;;6.88;;
45296;SDS011;31040;51.622;10.420;2022-12-10T12:50:28;13.00;;;8.45;;
45296;SDS011;31040;51.622;10.420;2022-12-10T12:52:58;11.52;;;8.10;;
45296;SDS011;31040;51.622;10.420;2022-12-10T12:55:43;11.77;;;7.35;;
45296;SDS011;31040;51.622;10.420;2022-12-10T13:03:51;12.80;;;7.03;;
45296;SDS011;31040;51.622;10.420;2022-12-10T13:06:23;13.20;;;7.88;;
45296;SDS011;31040;51.622;10.420;2022-12-10T13:11:29;12.02;;;6.43;;
45296;SDS011;31040;51.622;10.420;2022-12-10T13:14:09;9.88;;;6.43;;
45296;SDS011;31040;51.622;10.420;2022-12-10T13:24:19;10.20;;;6.53;;
45296;SDS011;31040;51.622;10.420;2022-12-10T13:37:35;19.75;;;8.35;;
45296;SDS011;31040;51.622;10.420;2022-12-10T13:42:34;14.93;;;8.35;;
45296;SDS011;31040;51.622;10.420;2022-12-10T13:47:52;17.48;;;8.68;;
45296;SDS011;31040;51.622;10.420;2022-12-10T13:50:26;16.55;;;8.63;;
45296;SDS011;31040;51.622;10.420;2022-12-10T13:58:15;14.32;;;8.43;;
45296;SDS011;31040;51.622;10.420;2022-12-10T14:00:57;14.38;;;8.07;;
45296;SDS011;31040;51.622;10.420;2022-12-10T14:03:48;14.23;;;8.43;;
45296;SDS011;31040;51.622;10.420;2022-12-10T14:06:19;14.88;;;9.32;;
45296;SDS011;31040;51.622;10.420;2022-12-10T14:08:52;14.90;;;8.45;;
45296;SDS011;31040;51.622;10.420;2022-12-10T14:11:21;14.93;;;9.25;;
45296;SDS011;31040;51.622;10.420;2022-12-10T14:13:51;11.23;;;7.65;;
45296;SDS011;31040;51.622;10.420;2022-12-10T14:16:21;12.98;;;8.05;;
45296;SDS011;31040;51.622;10.420;2022-12-10T14:18:54;13.35;;;8.10;;
45296;SDS011;31040;51.622;10.420;2022-12-10T14:21:23;16.50;;;8.50;;
45296;SDS011;31040;51.622;10.420;2022-12-10T14:23:51;13.40;;;8.48;;
45296;SDS011;31040;51.622;10.420;2022-12-10T14:26:26;21.45;;;9.98;;
45296;SDS011;31040;51.622;10.420;2022-12-10T14:28:55;13.68;;;9.27;;
45296;SDS011;31040;51.622;10.420;2022-12-10T14:31:33;15.27;;;9.05;;
45296;SDS011;31040;51.622;10.420;2022-12-10T14:34:03;14.93;;;10.18;;
45296;SDS011;31040;51.622;10.420;2022-12-10T14:36:37;16.30;;;10.57;;
45296;SDS011;31040;51.622;10.420;2022-12-10T14:39:13;17.77;;;9.73;;
45296;SDS011;31040;51.622;10.420;2022-12-10T14:41:41;15.55;;;10.85;;
45296;SDS011;31040;51.622;10.420;2022-12-10T14:44:10;20.15;;;10.90;;
45296;SDS011;31040;51.622;10.420;2022-12-10T14:46:39;20.95;;;12.23;;
45296;SDS011;31040;51.622;10.420;2022-12-10T14:49:08;22.38;;;13.38;;
45296;SDS011;31040;51.622;10.420;2022-12-10T14:51:40;24.73;;;12.02;;
45296;SDS011;31040;51.622;10.420;2022-12-10T14:54:29;27.08;;;13.27;;
45296;SDS011;31040;51.622;10.420;2022-12-10T14:56:58;20.73;;;12.45;;
45296;SDS011;31040;51.622;10.420;2022-12-10T14:59:27;23.60;;;14.18;;
45296;SDS011;31040;51.622;10.420;2022-12-10T15:01:57;22.35;;;12.50;;
45296;SDS011;31040;51.622;10.420;2022-12-10T15:04:27;27.08;;;14.55;;
45296;SDS011;31040;51.622;10.420;2022-12-10T15:06:56;25.63;;;13.98;;
45296;SDS011;31040;51.622;10.420;2022-12-10T15:09:25;29.70;;;15.40;;
45296;SDS011;31040;51.622;10.420;2022-12-10T15:11:53;31.50;;;15.10;;
45296;SDS011;31040;51.622;10.420;2022-12-10T15:14:21;31.75;;;15.00;;
45296;SDS011;31040;51.622;10.420;2022-12-10T15:16:50;30.00;;;15.13;;
45296;SDS011;31040;51.622;10.420;2022-12-10T15:21:58;32.80;;;16.10;;
45296;SDS011;31040;51.622;10.420;2022-12-10T15:24:27;32.83;;;14.73;;
45296;SDS011;31040;51.622;10.420;2022-12-10T15:26:59;34.53;;;15.90;;
45296;SDS011;31040;51.622;10.420;2022-12-10T15:29:29;35.75;;;16.00;;
45296;SDS011;31040;51.622;10.420;2022-12-10T15:32:01;38.58;;;16.85;;
45296;SDS011;31040;51.622;10.420;2022-12-10T15:34:29;40.05;;;17.45;;
45296;SDS011;31040;51.622;10.420;2022-12-10T15:37:00;38.78;;;16.95;;
45296;SDS011;31040;51.622;10.420;2022-12-10T15:39:32;40.03;;;16.70;;
45296;SDS011;31040;51.622;10.420;2022-12-10T15:42:04;41.42;;;18.33;;
45296;SDS011;31040;51.622;10.420;2022-12-10T15:47:19;37.42;;;17.52;;
45296;SDS011;31040;51.622;10.420;2022-12-10T15:49:47;34.65;;;17.83;;
45296;SDS011;31040;51.622;10.420;2022-12-10T15:52:17;45.17;;;19.38;;
45296;SDS011;31040;51.622;10.420;2022-12-10T15:54:45;36.72;;;18.23;;
45296;SDS011;31040;51.622;10.420;2022-12-10T15:57:14;42.05;;;18.95;;
45296;SDS011;31040;51.622;10.420;2022-12-10T15:59:41;44.33;;;19.50;;
45296;SDS011;31040;51.622;10.420;2022-12-10T16:04:42;36.67;;;17.23;;
45296;SDS011;31040;51.622;10.420;2022-12-10T16:07:09;39.80;;;19.48;;
45296;SDS011;31040;51.622;10.420;2022-12-10T16:09:37;40.10;;;17.88;;
45296;SDS011;31040;51.622;10.420;2022-12-10T16:12:04;41.70;;;17.38;;
45296;SDS011;31040;51.622;10.420;2022-12-10T16:14:31;36.13;;;16.88;;
45296;SDS011;31040;51.622;10.420;2022-12-10T16:16:59;36.33;;;17.48;;
45296;SDS011;31040;51.622;10.420;2022-12-10T16:19:26;33.35;;;17.80;;
45296;SDS011;31040;51.622;10.420;2022-12-10T16:21:53;42.88;;;19.35;;
45296;SDS011;31040;51.622;10.420;2022-12-10T16:24:20;35.58;;;17.27;;
45296;SDS011;31040;51.622;10.420;2022-12-10T16:26:48;35.47;;;16.83;;
45296;SDS011;31040;51.622;10.420;2022-12-10T16:29:15;33.90;;;16.63;;
45296;SDS011;31040;51.622;10.420;2022-12-10T16:31:45;31.92;;;15.88;;
45296;SDS011;31040;51.622;10.420;2022-12-10T16:34:12;41.20;;;18.10;;
45296;SDS011;31040;51.622;10.420;2022-12-10T16:36:40;37.45;;;17.88;;
45296;SDS011;31040;51.622;10.420;2022-12-10T16:39:07;32.10;;;16.38;;
45296;SDS011;31040;51.622;10.420;2022-12-10T16:41:35;29.30;;;15.90;;
45296;SDS011;31040;51.622;10.420;2022-12-10T16:44:02;42.80;;;18.60;;
45296;SDS011;31040;51.622;10.420;2022-12-10T16:46:29;41.03;;;18.42;;